sensor_id;sensor_type;location;lat;lon;timestamp;pressure;altitude;pressure_sealevel;temperature;humidity
35676;BME280;21790;42.668;23.298;2023-04-26T00:00:43;93761.16;;;16.78;50.56
35676;BME280;21790;42.668;23.298;2023-04-26T00:03:10;93767.13;;;16.68;50.87
35676;BME280;21790;42.668;23.298;2023-04-26T00:05:38;93754.75;;;16.58;50.56
35676;BME280;21790;42.668;23.298;2023-04-26T00:08:04;93764.16;;;16.61;50.68
35676;BME280;21790;42.668;23.298;2023-04-26T00:10:30;93761.81;;;16.65;50.53
35676;BME280;21790;42.668;23.298;2023-04-26T00:12:56;93758.41;;;16.48;51.14
35676;BME280;21790;42.668;23.298;2023-04-26T00:15:21;93756.81;;;16.58;50.76
35676;BME280;21790;42.668;23.298;2023-04-26T00:18:02;93742.06;;;16.63;51.05
35676;BME280;21790;42.668;23.298;2023-04-26T00:23:58;93747.78;;;16.22;51.61
35676;BME280;21790;42.668;23.298;2023-04-26T00:26:24;93752.13;;;16.17;51.21
35676;BME280;21790;42.668;23.298;2023-04-26T00:28:55;93745.28;;;16.43;50.34
35676;BME280;21790;42.668;23.298;2023-04-26T00:31:22;93741.22;;;16.44;50.04
35676;BME280;21790;42.668;23.298;2023-04-26T00:34:05;93730.19;;;16.57;49.66
35676;BME280;21790;42.668;23.298;2023-04-26T00:36:52;93733.31;;;16.48;49.82
35676;BME280;21790;42.668;23.298;2023-04-26T00:39:24;93729.59;;;16.40;50.25
35676;BME280;21790;42.668;23.298;2023-04-26T00:42:14;93729.41;;;16.62;49.51
35676;BME280;21790;42.668;23.298;2023-04-26T00:44:51;93729.94;;;16.55;49.72
35676;BME280;21790;42.668;23.298;2023-04-26T00:47:21;93729.84;;;16.42;49.87
35676;BME280;21790;42.668;23.298;2023-04-26T00:50:05;93722.53;;;16.39;49.55
35676;BME280;21790;42.668;23.298;2023-04-26T00:52:39;93738.78;;;16.35;50.51
35676;BME280;21790;42.668;23.298;2023-04-26T00:55:07;93737.03;;;16.31;50.72
35676;BME280;21790;42.668;23.298;2023-04-26T00:57:54;93736.69;;;16.41;50.49
35676;BME280;21790;42.668;23.298;2023-04-26T01:03:48;93736.22;;;16.12;50.79
35676;BME280;21790;42.668;23.298;2023-04-26T01:29:43;93724.00;;;15.56;51.24
35676;BME280;21790;42.668;23.298;2023-04-26T01:32:22;93731.31;;;15.64;51.01
35676;BME280;21790;42.668;23.298;2023-04-26T01:38:12;93733.41;;;15.53;51.23
35676;BME280;21790;42.668;23.298;2023-04-26T01:40:57;93739.16;;;15.60;51.04
35676;BME280;21790;42.668;23.298;2023-04-26T01:43:25;93749.41;;;15.41;51.29
35676;BME280;21790;42.668;23.298;2023-04-26T01:49:15;93745.81;;;15.46;51.27
35676;BME280;21790;42.668;23.298;2023-04-26T01:55:03;93734.22;;;15.42;51.05
35676;BME280;21790;42.668;23.298;2023-04-26T02:00:51;93727.44;;;15.32;51.30
35676;BME280;21790;42.668;23.298;2023-04-26T02:03:17;93723.16;;;15.31;50.58
35676;BME280;21790;42.668;23.298;2023-04-26T02:09:08;93722.28;;;15.53;50.01
35676;BME280;21790;42.668;23.298;2023-04-26T02:14:56;93725.94;;;15.66;49.21
35676;BME280;21790;42.668;23.298;2023-04-26T02:28:03;93722.16;;;15.69;48.67
35676;BME280;21790;42.668;23.298;2023-04-26T02:33:55;93707.78;;;15.19;49.79
35676;BME280;21790;42.668;23.298;2023-04-26T02:36:42;93722.25;;;15.06;50.69
35676;BME280;21790;42.668;23.298;2023-04-26T02:42:24;93720.78;;;15.05;50.73
35676;BME280;21790;42.668;23.298;2023-04-26T02:48:13;93712.59;;;15.18;51.22
35676;BME280;21790;42.668;23.298;2023-04-26T02:50:50;93703.84;;;15.38;50.82
35676;BME280;21790;42.668;23.298;2023-04-26T03:00:00;93694.41;;;15.12;50.93
35676;BME280;21790;42.668;23.298;2023-04-26T03:02:35;93700.88;;;15.31;50.92
35676;BME280;21790;42.668;23.298;2023-04-26T03:05:03;93700.59;;;15.34;50.89
35676;BME280;21790;42.668;23.298;2023-04-26T03:07:29;93708.78;;;15.21;51.37
35676;BME280;21790;42.668;23.298;2023-04-26T03:09:57;93696.78;;;15.37;51.29
35676;BME280;21790;42.668;23.298;2023-04-26T03:12:23;93712.72;;;15.37;51.21
35676;BME280;21790;42.668;23.298;2023-04-26T03:14:49;93705.06;;;15.54;50.81
35676;BME280;21790;42.668;23.298;2023-04-26T03:17:30;93698.84;;;15.67;50.47
35676;BME280;21790;42.668;23.298;2023-04-26T03:20:14;93700.38;;;15.68;50.21
35676;BME280;21790;42.668;23.298;2023-04-26T03:22:50;93700.84;;;15.72;50.12
35676;BME280;21790;42.668;23.298;2023-04-26T03:25:17;93703.50;;;15.59;50.58
35676;BME280;21790;42.668;23.298;2023-04-26T03:31:12;93707.03;;;15.59;51.16
35676;BME280;21790;42.668;23.298;2023-04-26T03:40:50;93708.28;;;15.17;52.77
35676;BME280;21790;42.668;23.298;2023-04-26T03:43:16;93711.13;;;15.06;52.98
35676;BME280;21790;42.668;23.298;2023-04-26T03:45:41;93706.41;;;14.90;53.72
35676;BME280;21790;42.668;23.298;2023-04-26T03:48:16;93705.22;;;14.80;53.93
35676;BME280;21790;42.668;23.298;2023-04-26T03:54:07;93725.28;;;15.14;53.34
35676;BME280;21790;42.668;23.298;2023-04-26T04:02:42;93731.59;;;15.55;52.14
35676;BME280;21790;42.668;23.298;2023-04-26T04:05:17;93730.63;;;15.53;52.26
35676;BME280;21790;42.668;23.298;2023-04-26T04:07:48;93731.78;;;15.68;52.23
35676;BME280;21790;42.668;23.298;2023-04-26T04:10:13;93726.31;;;15.52;52.44
35676;BME280;21790;42.668;23.298;2023-04-26T04:12:54;93728.91;;;15.79;52.10
35676;BME280;21790;42.668;23.298;2023-04-26T04:15:40;93733.72;;;15.79;52.13
35676;BME280;21790;42.668;23.298;2023-04-26T04:18:20;93732.81;;;15.95;52.00
35676;BME280;21790;42.668;23.298;2023-04-26T04:20:48;93733.91;;;15.86;52.21
35676;BME280;21790;42.668;23.298;2023-04-26T04:23:23;93733.28;;;15.99;51.79
35676;BME280;21790;42.668;23.298;2023-04-26T04:26:02;93737.47;;;16.11;51.74
35676;BME280;21790;42.668;23.298;2023-04-26T04:31:43;93753.13;;;16.20;51.53
35676;BME280;21790;42.668;23.298;2023-04-26T04:34:24;93741.06;;;16.36;51.02
35676;BME280;21790;42.668;23.298;2023-04-26T04:36:50;93737.03;;;16.31;50.87
35676;BME280;21790;42.668;23.298;2023-04-26T04:39:16;93742.59;;;16.31;50.70
35676;BME280;21790;42.668;23.298;2023-04-26T04:41:42;93745.88;;;16.36;50.56
35676;BME280;21790;42.668;23.298;2023-04-26T04:44:17;93743.03;;;16.41;50.65
35676;BME280;21790;42.668;23.298;2023-04-26T04:46:43;93731.94;;;16.60;49.87
35676;BME280;21790;42.668;23.298;2023-04-26T04:49:10;93748.94;;;16.62;49.96
35676;BME280;21790;42.668;23.298;2023-04-26T04:51:40;93751.81;;;16.51;49.77
35676;BME280;21790;42.668;23.298;2023-04-26T04:54:17;93753.22;;;16.63;49.99
35676;BME280;21790;42.668;23.298;2023-04-26T04:56:51;93753.63;;;16.72;49.95
35676;BME280;21790;42.668;23.298;2023-04-26T04:59:22;93755.06;;;16.79;49.58
35676;BME280;21790;42.668;23.298;2023-04-26T05:08:50;93743.69;;;18.34;46.68
35676;BME280;21790;42.668;23.298;2023-04-26T05:11:16;93746.13;;;18.12;46.77
35676;BME280;21790;42.668;23.298;2023-04-26T05:13:42;93746.09;;;17.98;46.90
35676;BME280;21790;42.668;23.298;2023-04-26T05:16:10;93748.88;;;17.98;46.58
35676;BME280;21790;42.668;23.298;2023-04-26T05:18:37;93739.34;;;17.75;46.80
35676;BME280;21790;42.668;23.298;2023-04-26T05:26:14;93757.25;;;17.67;47.53
35676;BME280;21790;42.668;23.298;2023-04-26T05:28:41;93757.38;;;17.74;47.13
35676;BME280;21790;42.668;23.298;2023-04-26T05:31:08;93751.34;;;17.70;46.97
35676;BME280;21790;42.668;23.298;2023-04-26T05:33:34;93756.91;;;17.89;46.69
35676;BME280;21790;42.668;23.298;2023-04-26T05:36:00;93756.44;;;17.85;46.26
35676;BME280;21790;42.668;23.298;2023-04-26T05:38:26;93755.09;;;17.91;46.41
35676;BME280;21790;42.668;23.298;2023-04-26T05:40:52;93750.41;;;18.13;46.34
35676;BME280;21790;42.668;23.298;2023-04-26T05:43:18;93761.31;;;18.29;45.91
35676;BME280;21790;42.668;23.298;2023-04-26T05:45:54;93764.03;;;18.35;44.13
35676;BME280;21790;42.668;23.298;2023-04-26T05:48:21;93765.53;;;18.36;44.96
35676;BME280;21790;42.668;23.298;2023-04-26T05:50:49;93767.91;;;18.45;44.91
35676;BME280;21790;42.668;23.298;2023-04-26T05:53:16;93764.91;;;18.43;44.99
35676;BME280;21790;42.668;23.298;2023-04-26T05:55:42;93755.31;;;18.38;45.08
35676;BME280;21790;42.668;23.298;2023-04-26T05:58:08;93762.97;;;18.38;45.18
35676;BME280;21790;42.668;23.298;2023-04-26T06:00:34;93765.53;;;18.36;44.81
35676;BME280;21790;42.668;23.298;2023-04-26T06:03:01;93761.69;;;18.52;44.67
35676;BME280;21790;42.668;23.298;2023-04-26T06:05:30;93760.94;;;18.52;45.05
35676;BME280;21790;42.668;23.298;2023-04-26T06:07:56;93765.28;;;18.66;45.05
35676;BME280;21790;42.668;23.298;2023-04-26T06:10:22;93764.44;;;18.84;44.94
35676;BME280;21790;42.668;23.298;2023-04-26T06:12:48;93766.25;;;19.08;44.82
35676;BME280;21790;42.668;23.298;2023-04-26T06:15:14;93763.88;;;19.12;44.59
35676;BME280;21790;42.668;23.298;2023-04-26T06:17:40;93760.66;;;19.08;43.70
35676;BME280;21790;42.668;23.298;2023-04-26T06:20:07;93761.31;;;19.01;43.25
35676;BME280;21790;42.668;23.298;2023-04-26T06:22:34;93760.88;;;19.10;43.85
35676;BME280;21790;42.668;23.298;2023-04-26T06:25:00;93777.88;;;18.99;43.22
35676;BME280;21790;42.668;23.298;2023-04-26T06:27:26;93774.03;;;19.02;42.22
35676;BME280;21790;42.668;23.298;2023-04-26T06:29:52;93778.63;;;18.73;42.65
35676;BME280;21790;42.668;23.298;2023-04-26T06:32:18;93779.75;;;18.51;43.26
35676;BME280;21790;42.668;23.298;2023-04-26T06:34:43;93779.03;;;18.19;42.44
35676;BME280;21790;42.668;23.298;2023-04-26T06:37:10;93771.66;;;18.21;43.58
35676;BME280;21790;42.668;23.298;2023-04-26T06:39:37;93781.00;;;18.24;43.16
35676;BME280;21790;42.668;23.298;2023-04-26T06:42:04;93781.66;;;18.30;42.84
35676;BME280;21790;42.668;23.298;2023-04-26T06:44:30;93780.88;;;18.16;42.99
35676;BME280;21790;42.668;23.298;2023-04-26T06:46:56;93780.84;;;18.48;43.64
35676;BME280;21790;42.668;23.298;2023-04-26T06:49:23;93773.78;;;18.73;44.00
35676;BME280;21790;42.668;23.298;2023-04-26T06:51:49;93779.50;;;18.94;43.48
35676;BME280;21790;42.668;23.298;2023-04-26T06:54:17;93773.56;;;19.24;41.51
35676;BME280;21790;42.668;23.298;2023-04-26T06:56:43;93774.84;;;19.49;41.79
35676;BME280;21790;42.668;23.298;2023-04-26T06:59:09;93778.81;;;19.54;41.65
35676;BME280;21790;42.668;23.298;2023-04-26T07:01:36;93781.84;;;19.56;41.18
35676;BME280;21790;42.668;23.298;2023-04-26T07:04:02;93785.34;;;19.70;40.82
35676;BME280;21790;42.668;23.298;2023-04-26T07:06:29;93781.75;;;19.82;41.06
35676;BME280;21790;42.668;23.298;2023-04-26T07:08:57;93789.09;;;19.85;40.55
35676;BME280;21790;42.668;23.298;2023-04-26T07:11:23;93780.09;;;19.66;40.74
35676;BME280;21790;42.668;23.298;2023-04-26T07:13:49;93784.28;;;19.73;40.62
35676;BME280;21790;42.668;23.298;2023-04-26T07:16:16;93777.41;;;19.60;41.00
35676;BME280;21790;42.668;23.298;2023-04-26T07:18:41;93783.44;;;19.64;40.99
35676;BME280;21790;42.668;23.298;2023-04-26T07:21:07;93785.09;;;19.47;40.94
35676;BME280;21790;42.668;23.298;2023-04-26T07:23:33;93791.75;;;19.44;40.33
35676;BME280;21790;42.668;23.298;2023-04-26T07:25:59;93792.06;;;19.67;39.91
35676;BME280;21790;42.668;23.298;2023-04-26T07:28:29;93767.88;;;19.77;38.59
35676;BME280;21790;42.668;23.298;2023-04-26T07:30:55;93789.78;;;19.99;38.17
35676;BME280;21790;42.668;23.298;2023-04-26T07:33:20;93791.78;;;19.91;38.09
35676;BME280;21790;42.668;23.298;2023-04-26T07:35:52;93790.63;;;19.73;38.01
35676;BME280;21790;42.668;23.298;2023-04-26T07:38:20;93781.88;;;19.77;38.04
35676;BME280;21790;42.668;23.298;2023-04-26T07:40:45;93795.91;;;19.77;38.26
35676;BME280;21790;42.668;23.298;2023-04-26T07:43:11;93793.38;;;19.86;38.11
35676;BME280;21790;42.668;23.298;2023-04-26T07:45:38;93800.63;;;19.82;38.41
35676;BME280;21790;42.668;23.298;2023-04-26T07:48:04;93803.25;;;19.67;38.06
35676;BME280;21790;42.668;23.298;2023-04-26T07:50:30;93804.91;;;19.62;38.35
35676;BME280;21790;42.668;23.298;2023-04-26T07:52:56;93812.59;;;19.82;37.78
35676;BME280;21790;42.668;23.298;2023-04-26T07:55:22;93809.31;;;19.91;37.45
35676;BME280;21790;42.668;23.298;2023-04-26T07:57:47;93819.25;;;19.92;37.82
35676;BME280;21790;42.668;23.298;2023-04-26T08:00:13;93814.81;;;19.97;37.43
35676;BME280;21790;42.668;23.298;2023-04-26T08:02:40;93817.50;;;20.02;37.22
35676;BME280;21790;42.668;23.298;2023-04-26T08:05:13;93815.69;;;20.26;36.55
35676;BME280;21790;42.668;23.298;2023-04-26T08:07:40;93816.41;;;20.39;35.98
35676;BME280;21790;42.668;23.298;2023-04-26T08:10:06;93816.28;;;20.11;36.30
35676;BME280;21790;42.668;23.298;2023-04-26T08:12:33;93817.34;;;20.08;36.63
35676;BME280;21790;42.668;23.298;2023-04-26T08:14:59;93807.91;;;19.98;36.34
35676;BME280;21790;42.668;23.298;2023-04-26T08:17:26;93803.34;;;20.08;36.39
35676;BME280;21790;42.668;23.298;2023-04-26T08:19:52;93821.06;;;20.24;36.81
35676;BME280;21790;42.668;23.298;2023-04-26T08:22:18;93814.38;;;20.06;35.91
35676;BME280;21790;42.668;23.298;2023-04-26T08:24:48;93809.97;;;20.31;36.57
35676;BME280;21790;42.668;23.298;2023-04-26T08:27:16;93809.03;;;20.16;36.32
35676;BME280;21790;42.668;23.298;2023-04-26T08:29:42;93812.00;;;19.97;36.01
35676;BME280;21790;42.668;23.298;2023-04-26T08:32:08;93814.38;;;20.06;36.48
35676;BME280;21790;42.668;23.298;2023-04-26T08:34:34;93813.31;;;19.96;36.63
35676;BME280;21790;42.668;23.298;2023-04-26T08:37:00;93813.00;;;20.20;36.19
35676;BME280;21790;42.668;23.298;2023-04-26T08:39:25;93812.22;;;19.99;36.13
35676;BME280;21790;42.668;23.298;2023-04-26T08:41:55;93815.31;;;20.09;36.28
35676;BME280;21790;42.668;23.298;2023-04-26T08:44:24;93809.78;;;19.95;36.65
35676;BME280;21790;42.668;23.298;2023-04-26T08:47:14;93814.56;;;20.08;36.50
35676;BME280;21790;42.668;23.298;2023-04-26T08:49:45;93808.50;;;20.17;36.31
35676;BME280;21790;42.668;23.298;2023-04-26T08:52:18;93814.03;;;20.30;36.23
35676;BME280;21790;42.668;23.298;2023-04-26T08:54:49;93810.81;;;20.39;36.16
35676;BME280;21790;42.668;23.298;2023-04-26T08:57:17;93810.59;;;20.37;36.29
35676;BME280;21790;42.668;23.298;2023-04-26T08:59:43;93816.19;;;20.58;35.86
35676;BME280;21790;42.668;23.298;2023-04-26T09:02:15;93821.47;;;20.41;35.96
35676;BME280;21790;42.668;23.298;2023-04-26T09:04:42;93808.41;;;20.43;35.66
35676;BME280;21790;42.668;23.298;2023-04-26T09:07:10;93829.00;;;20.67;35.84
35676;BME280;21790;42.668;23.298;2023-04-26T09:09:41;93818.81;;;20.56;35.44
35676;BME280;21790;42.668;23.298;2023-04-26T09:12:07;93821.81;;;20.37;34.72
35676;BME280;21790;42.668;23.298;2023-04-26T09:14:33;93821.66;;;20.43;35.21
35676;BME280;21790;42.668;23.298;2023-04-26T09:16:59;93821.25;;;20.60;35.12
35676;BME280;21790;42.668;23.298;2023-04-26T09:19:39;93825.00;;;20.62;34.66
35676;BME280;21790;42.668;23.298;2023-04-26T09:22:07;93828.66;;;20.50;34.91
35676;BME280;21790;42.668;23.298;2023-04-26T09:24:55;93827.09;;;20.62;34.82
35676;BME280;21790;42.668;23.298;2023-04-26T09:27:21;93828.03;;;20.64;35.17
35676;BME280;21790;42.668;23.298;2023-04-26T09:40:45;93813.34;;;20.79;35.04
35676;BME280;21790;42.668;23.298;2023-04-26T09:43:13;93819.78;;;20.87;34.38
35676;BME280;21790;42.668;23.298;2023-04-26T09:50:48;93809.00;;;21.19;35.15
35676;BME280;21790;42.668;23.298;2023-04-26T09:53:28;93810.00;;;21.29;34.00
35676;BME280;21790;42.668;23.298;2023-04-26T09:55:57;93816.94;;;21.08;33.75
35676;BME280;21790;42.668;23.298;2023-04-26T09:58:30;93804.28;;;21.14;33.83
35676;BME280;21790;42.668;23.298;2023-04-26T10:00:57;93811.81;;;21.19;34.19
35676;BME280;21790;42.668;23.298;2023-04-26T10:03:23;93802.41;;;21.17;34.27
35676;BME280;21790;42.668;23.298;2023-04-26T10:05:49;93806.66;;;21.39;33.54
35676;BME280;21790;42.668;23.298;2023-04-26T10:08:15;93806.44;;;21.65;33.60
35676;BME280;21790;42.668;23.298;2023-04-26T10:10:41;93795.97;;;21.73;32.92
35676;BME280;21790;42.668;23.298;2023-04-26T10:13:08;93804.53;;;21.60;32.79
35676;BME280;21790;42.668;23.298;2023-04-26T10:15:35;93797.03;;;21.62;32.48
35676;BME280;21790;42.668;23.298;2023-04-26T10:18:01;93803.13;;;21.38;33.42
35676;BME280;21790;42.668;23.298;2023-04-26T10:20:28;93795.91;;;21.22;33.34
35676;BME280;21790;42.668;23.298;2023-04-26T10:22:56;93803.41;;;21.63;32.76
35676;BME280;21790;42.668;23.298;2023-04-26T10:25:39;93804.41;;;21.73;32.27
35676;BME280;21790;42.668;23.298;2023-04-26T10:28:06;93788.00;;;21.49;32.67
35676;BME280;21790;42.668;23.298;2023-04-26T10:31:01;93790.72;;;21.77;33.34
35676;BME280;21790;42.668;23.298;2023-04-26T10:33:27;93798.97;;;21.75;32.04
35676;BME280;21790;42.668;23.298;2023-04-26T10:36:00;93797.72;;;21.91;32.19
35676;BME280;21790;42.668;23.298;2023-04-26T10:38:26;93793.19;;;21.88;31.79
35676;BME280;21790;42.668;23.298;2023-04-26T10:40:51;93794.88;;;21.84;32.37
35676;BME280;21790;42.668;23.298;2023-04-26T10:45:48;93806.97;;;21.27;31.52
35676;BME280;21790;42.668;23.298;2023-04-26T10:53:24;93784.84;;;21.60;31.44
35676;BME280;21790;42.668;23.298;2023-04-26T10:55:50;93790.22;;;21.50;31.10
35676;BME280;21790;42.668;23.298;2023-04-26T10:58:30;93783.19;;;21.72;30.78
35676;BME280;21790;42.668;23.298;2023-04-26T11:01:07;93791.53;;;21.49;30.42
35676;BME280;21790;42.668;23.298;2023-04-26T11:03:33;93787.72;;;21.32;31.01
35676;BME280;21790;42.668;23.298;2023-04-26T11:05:58;93791.88;;;21.10;30.94
35676;BME280;21790;42.668;23.298;2023-04-26T11:08:28;93794.56;;;21.15;30.62
35676;BME280;21790;42.668;23.298;2023-04-26T11:13:46;93786.88;;;21.16;31.06
35676;BME280;21790;42.668;23.298;2023-04-26T11:16:16;93782.09;;;21.03;31.36
35676;BME280;21790;42.668;23.298;2023-04-26T11:18:46;93790.53;;;21.32;31.87
35676;BME280;21790;42.668;23.298;2023-04-26T11:21:12;93791.44;;;21.06;30.15
35676;BME280;21790;42.668;23.298;2023-04-26T11:23:42;93794.38;;;20.93;30.90
35676;BME280;21790;42.668;23.298;2023-04-26T11:26:08;93787.00;;;21.10;30.60
35676;BME280;21790;42.668;23.298;2023-04-26T11:28:35;93791.22;;;21.24;30.72
35676;BME280;21790;42.668;23.298;2023-04-26T11:31:05;93796.97;;;21.47;31.16
35676;BME280;21790;42.668;23.298;2023-04-26T11:33:31;93791.72;;;21.44;30.06
35676;BME280;21790;42.668;23.298;2023-04-26T11:35:59;93792.69;;;21.18;29.03
35676;BME280;21790;42.668;23.298;2023-04-26T11:38:26;93794.59;;;21.23;30.35
35676;BME280;21790;42.668;23.298;2023-04-26T11:41:02;93781.56;;;21.41;30.25
35676;BME280;21790;42.668;23.298;2023-04-26T11:46:00;93795.41;;;21.39;29.95
35676;BME280;21790;42.668;23.298;2023-04-26T11:48:27;93789.03;;;21.31;30.02
35676;BME280;21790;42.668;23.298;2023-04-26T11:50:53;93791.38;;;21.55;30.04
35676;BME280;21790;42.668;23.298;2023-04-26T11:53:19;93793.28;;;21.60;30.56
35676;BME280;21790;42.668;23.298;2023-04-26T11:55:44;93793.47;;;21.62;30.00
35676;BME280;21790;42.668;23.298;2023-04-26T11:58:14;93790.66;;;21.62;30.26
35676;BME280;21790;42.668;23.298;2023-04-26T12:01:00;93783.91;;;21.57;28.93
35676;BME280;21790;42.668;23.298;2023-04-26T12:03:33;93786.66;;;21.50;29.53
35676;BME280;21790;42.668;23.298;2023-04-26T12:06:06;93786.28;;;21.46;29.29
35676;BME280;21790;42.668;23.298;2023-04-26T12:08:32;93793.19;;;21.37;29.97
35676;BME280;21790;42.668;23.298;2023-04-26T12:11:00;93784.59;;;21.50;30.16
35676;BME280;21790;42.668;23.298;2023-04-26T12:13:30;93784.94;;;21.39;30.17
35676;BME280;21790;42.668;23.298;2023-04-26T12:15:58;93781.69;;;21.27;29.89
35676;BME280;21790;42.668;23.298;2023-04-26T12:18:31;93789.56;;;21.29;29.62
35676;BME280;21790;42.668;23.298;2023-04-26T12:20:58;93779.28;;;21.03;30.09
35676;BME280;21790;42.668;23.298;2023-04-26T12:23:23;93776.41;;;21.16;30.69
35676;BME280;21790;42.668;23.298;2023-04-26T12:25:56;93782.06;;;21.60;30.03
35676;BME280;21790;42.668;23.298;2023-04-26T12:28:24;93781.56;;;21.41;29.84
35676;BME280;21790;42.668;23.298;2023-04-26T12:30:50;93774.50;;;21.55;29.86
35676;BME280;21790;42.668;23.298;2023-04-26T12:33:16;93775.94;;;21.41;29.21
35676;BME280;21790;42.668;23.298;2023-04-26T12:35:45;93775.19;;;21.33;29.79
35676;BME280;21790;42.668;23.298;2023-04-26T12:38:11;93769.78;;;21.14;29.20
35676;BME280;21790;42.668;23.298;2023-04-26T12:40:37;93777.34;;;21.19;30.16
35676;BME280;21790;42.668;23.298;2023-04-26T12:43:03;93769.28;;;21.23;29.81
35676;BME280;21790;42.668;23.298;2023-04-26T12:45:28;93774.59;;;21.06;30.78
35676;BME280;21790;42.668;23.298;2023-04-26T12:47:56;93768.94;;;20.98;31.35
35676;BME280;21790;42.668;23.298;2023-04-26T12:50:22;93770.78;;;20.96;30.74
35676;BME280;21790;42.668;23.298;2023-04-26T12:52:47;93764.72;;;20.84;31.29
35676;BME280;21790;42.668;23.298;2023-04-26T12:55:14;93771.22;;;21.00;31.02
35676;BME280;21790;42.668;23.298;2023-04-26T12:57:42;93775.94;;;20.84;30.97
35676;BME280;21790;42.668;23.298;2023-04-26T13:00:13;93771.06;;;21.05;30.29
35676;BME280;21790;42.668;23.298;2023-04-26T13:02:39;93775.50;;;21.21;30.84
35676;BME280;21790;42.668;23.298;2023-04-26T13:05:06;93776.31;;;21.09;29.92
35676;BME280;21790;42.668;23.298;2023-04-26T13:07:34;93777.00;;;20.73;30.57
35676;BME280;21790;42.668;23.298;2023-04-26T13:10:02;93788.81;;;20.72;30.89
35676;BME280;21790;42.668;23.298;2023-04-26T13:12:28;93776.97;;;20.66;31.35
35676;BME280;21790;42.668;23.298;2023-04-26T13:14:54;93790.66;;;20.49;31.03
35676;BME280;21790;42.668;23.298;2023-04-26T13:17:21;93795.25;;;20.38;30.70
35676;BME280;21790;42.668;23.298;2023-04-26T13:19:47;93791.03;;;20.45;31.40
35676;BME280;21790;42.668;23.298;2023-04-26T13:22:14;93792.56;;;20.54;31.43
35676;BME280;21790;42.668;23.298;2023-04-26T13:24:40;93805.88;;;20.32;30.99
35676;BME280;21790;42.668;23.298;2023-04-26T13:27:06;93813.25;;;20.43;31.51
35676;BME280;21790;42.668;23.298;2023-04-26T13:29:32;93805.50;;;20.36;30.77
35676;BME280;21790;42.668;23.298;2023-04-26T13:31:59;93815.31;;;20.42;31.32
35676;BME280;21790;42.668;23.298;2023-04-26T13:34:26;93809.91;;;20.11;30.76
35676;BME280;21790;42.668;23.298;2023-04-26T13:36:53;93816.91;;;20.17;31.34
35676;BME280;21790;42.668;23.298;2023-04-26T13:39:21;93822.31;;;20.15;31.49
35676;BME280;21790;42.668;23.298;2023-04-26T13:41:47;93818.97;;;20.17;31.06
35676;BME280;21790;42.668;23.298;2023-04-26T13:44:13;93817.66;;;20.18;31.65
35676;BME280;21790;42.668;23.298;2023-04-26T13:46:40;93821.69;;;20.09;32.07
35676;BME280;21790;42.668;23.298;2023-04-26T13:49:06;93819.69;;;19.96;32.15
35676;BME280;21790;42.668;23.298;2023-04-26T13:51:32;93830.31;;;20.11;31.27
35676;BME280;21790;42.668;23.298;2023-04-26T13:53:59;93835.25;;;20.18;31.79
35676;BME280;21790;42.668;23.298;2023-04-26T13:56:25;93838.84;;;20.05;32.29
35676;BME280;21790;42.668;23.298;2023-04-26T13:58:54;93838.84;;;20.05;32.40
35676;BME280;21790;42.668;23.298;2023-04-26T14:01:25;93835.88;;;19.90;32.19
35676;BME280;21790;42.668;23.298;2023-04-26T14:03:51;93850.06;;;20.05;31.94
35676;BME280;21790;42.668;23.298;2023-04-26T14:06:17;93841.03;;;19.99;31.97
35676;BME280;21790;42.668;23.298;2023-04-26T14:08:43;93855.38;;;19.96;32.60
35676;BME280;21790;42.668;23.298;2023-04-26T14:11:08;93860.19;;;20.09;32.79
35676;BME280;21790;42.668;23.298;2023-04-26T14:13:36;93853.91;;;20.16;32.33
35676;BME280;21790;42.668;23.298;2023-04-26T14:16:01;93850.38;;;20.02;32.10
35676;BME280;21790;42.668;23.298;2023-04-26T14:18:27;93859.44;;;20.08;31.99
35676;BME280;21790;42.668;23.298;2023-04-26T14:20:53;93859.78;;;20.04;31.66
35676;BME280;21790;42.668;23.298;2023-04-26T14:23:19;93882.13;;;19.97;31.72
35676;BME280;21790;42.668;23.298;2023-04-26T14:25:44;93873.09;;;19.64;31.27
35676;BME280;21790;42.668;23.298;2023-04-26T14:28:10;93880.34;;;19.73;31.86
35676;BME280;21790;42.668;23.298;2023-04-26T14:30:37;93882.56;;;19.75;31.65
35676;BME280;21790;42.668;23.298;2023-04-26T14:33:03;93880.03;;;19.63;32.02
35676;BME280;21790;42.668;23.298;2023-04-26T14:35:28;93882.06;;;19.63;32.58
35676;BME280;21790;42.668;23.298;2023-04-26T14:37:55;93880.34;;;19.73;32.64
35676;BME280;21790;42.668;23.298;2023-04-26T14:40:20;93896.81;;;19.77;32.56
35676;BME280;21790;42.668;23.298;2023-04-26T14:42:46;93895.06;;;19.87;32.80
35676;BME280;21790;42.668;23.298;2023-04-26T14:45:12;93895.53;;;19.78;32.88
35676;BME280;21790;42.668;23.298;2023-04-26T14:47:38;93892.66;;;19.57;32.86
35676;BME280;21790;42.668;23.298;2023-04-26T14:50:04;93906.41;;;19.29;33.72
35676;BME280;21790;42.668;23.298;2023-04-26T14:52:35;93908.38;;;19.47;33.59
35676;BME280;21790;42.668;23.298;2023-04-26T14:55:02;93917.72;;;19.23;33.11
35676;BME280;21790;42.668;23.298;2023-04-26T14:57:27;93917.28;;;19.19;33.17
35676;BME280;21790;42.668;23.298;2023-04-26T14:59:54;93917.56;;;19.15;32.97
35676;BME280;21790;42.668;23.298;2023-04-26T15:02:20;93913.34;;;18.96;33.24
35676;BME280;21790;42.668;23.298;2023-04-26T15:04:47;93927.34;;;18.96;33.58
35676;BME280;21790;42.668;23.298;2023-04-26T15:07:13;93926.91;;;18.92;34.21
35676;BME280;21790;42.668;23.298;2023-04-26T15:09:40;93938.66;;;18.90;34.04
35676;BME280;21790;42.668;23.298;2023-04-26T15:12:06;93944.19;;;19.09;34.29
35676;BME280;21790;42.668;23.298;2023-04-26T15:14:32;93950.88;;;19.19;34.08
35676;BME280;21790;42.668;23.298;2023-04-26T15:16:57;93945.47;;;19.08;34.45
35676;BME280;21790;42.668;23.298;2023-04-26T15:19:23;93948.94;;;19.14;34.19